Date,TemperatureHighF,TemperatureAvgF,TemperatureLowF,DewpointHighF,DewpointAvgF,DewpointLowF,HumidityHigh,HumidityAvg,HumidityLow,PressureMaxIn,PressureMinIn,WindSpeedMaxMPH,WindSpeedAvgMPH,GustSpeedMaxMPH,PrecipitationSumIn
2013-12-1,31.2,26.8,17.5,26.4,21.7,15.3,93,81,73,30.40,30.07,3,0,7,0.00
2013-12-2,39.9,31.1,27.2,32.3,28.1,25.7,95,89,70,30.07,29.92,2,0,2,0.02
2013-12-3,48.1,38.5,30.4,37.5,33.8,29.3,96,84,66,30.04,29.93,5,0,5,0.01
2013-12-4,48.1,36.9,27.2,40.7,33.9,26.5,98,89,71,30.15,30.04,4,0,4,0.00
2013-12-5,52.0,49.3,44.3,51.5,48.1,40.6,99,96,86,30.09,29.91,9,0,9,0.36
2013-12-6,51.9,39.9,30.5,51.5,35.7,27.5,99,85,56,30.25,29.91,12,1,12,0.35
2013-12-7,35.5,30.7,24.1,29.2,23.6,13.7,95,75,59,30.61,30.22,7,1,13,0.05
2013-12-8,27.1,22.6,16.7,24.2,18.2,12.3,95,83,64,30.64,30.36,5,0,5,0.00
2013-12-9,33.8,29.8,25.2,31.7,28.5,23.9,98,95,86,30.36,30.02,6,0,6,0.00
2013-12-10,32.3,28.7,22.0,28.7,20.4,9.9,91,72,51,30.18,29.97,15,1,15,0.00
2013-12-11,32.0,24.9,20.9,17.0,13.1,10.1,79,61,44,30.37,30.17,14,1,14,0.00
2013-12-12,24.2,19.6,16.0,16.7,7.2,2.3,83,59,43,30.44,30.19,13,1,13,0.00
2013-12-13,31.7,26.1,19.0,17.0,11.6,2.8,60,54,47,30.35,30.17,10,1,10,0.00
2013-12-14,28.3,23.7,21.3,24.8,19.8,13.8,95,85,60,30.42,29.84,10,1,10,0.00
2013-12-15,35.9,28.3,24.3,30.5,23.6,14.2,96,83,62,29.93,29.65,12,0,12,0.05
2013-12-16,26.2,18.9,9.1,14.1,9.0,5.3,86,66,48,30.24,29.92,11,1,11,0.00
2013-12-17,25.0,16.7,9.1,21.0,14.0,5.5,95,89,83,30.23,30.01,2,0,2,0.00
2013-12-18,33.9,23.8,13.9,24.0,17.9,12.0,94,79,62,30.21,30.03,9,1,11,0.00
2013-12-19,39.9,26.5,14.5,25.0,19.8,12.3,95,77,51,30.19,30.07,4,0,4,0.03
2013-12-20,38.5,33.3,27.0,32.2,28.7,24.0,89,83,76,30.13,29.98,2,0,2,0.03
2013-12-21,45.7,40.3,35.2,43.9,37.0,31.5,98,88,71,30.00,29.85,7,0,7,0.30
2013-12-22,61.6,54.1,39.4,57.4,52.5,38.6,99,94,85,29.95,29.71,14,1,14,0.03
2013-12-23,51.5,46.0,32.1,50.6,41.8,21.6,99,86,60,30.25,29.92,17,1,19,0.06
2013-12-24,34.9,28.2,18.5,26.5,18.7,8.8,89,68,55,30.47,30.18,15,1,15,0.00
2013-12-25,23.9,18.6,12.4,15.1,8.7,3.7,76,65,54,30.60,30.39,10,0,10,0.00
2013-12-26,34.4,26.4,21.8,27.9,21.7,14.9,93,82,68,30.39,30.21,10,0,10,0.00
2013-12-27,32.9,26.4,19.1,24.2,20.8,16.2,95,79,66,30.39,30.30,3,0,3,0.00
2013-12-28,50.8,32.0,19.5,32.6,25.4,18.1,96,79,47,30.30,30.10,3,0,4,0.04
2013-12-29,38.9,33.9,30.7,37.0,32.0,27.8,98,93,86,30.10,29.63,8,0,8,0.94
2013-12-30,40.9,31.6,23.0,36.1,22.5,11.3,98,70,53,30.21,29.79,15,2,15,0.00
2013-12-31,29.2,22.8,19.1,23.1,13.5,8.1,88,67,52,30.33,30.08,10,1,20,0.00